sensor_id;sensor_type;location;lat;lon;timestamp;P1;durP1;ratioP1;P2;durP2;ratioP2
36391;SDS011;22639;42.690;23.356;2023-02-01T00:00:43;7.77;;;6.03;;
36391;SDS011;22639;42.690;23.356;2023-02-01T00:03:09;6.73;;;5.97;;
36391;SDS011;22639;42.690;23.356;2023-02-01T00:05:34;7.07;;;6.17;;
36391;SDS011;22639;42.690;23.356;2023-02-01T00:08:00;8.93;;;6.33;;
36391;SDS011;22639;42.690;23.356;2023-02-01T00:10:25;7.90;;;6.20;;
36391;SDS011;22639;42.690;23.356;2023-02-01T00:12:51;7.43;;;6.47;;
36391;SDS011;22639;42.690;23.356;2023-02-01T00:15:16;11.17;;;7.17;;
36391;SDS011;22639;42.690;23.356;2023-02-01T00:17:41;8.00;;;5.90;;
36391;SDS011;22639;42.690;23.356;2023-02-01T00:20:07;8.80;;;6.47;;
36391;SDS011;22639;42.690;23.356;2023-02-01T00:22:32;8.40;;;6.00;;
36391;SDS011;22639;42.690;23.356;2023-02-01T00:24:58;5.80;;;4.10;;
36391;SDS011;22639;42.690;23.356;2023-02-01T00:27:23;8.87;;;6.23;;
36391;SDS011;22639;42.690;23.356;2023-02-01T00:29:48;10.13;;;6.53;;
36391;SDS011;22639;42.690;23.356;2023-02-01T00:32:13;7.37;;;6.57;;
36391;SDS011;22639;42.690;23.356;2023-02-01T00:34:39;9.57;;;7.60;;
36391;SDS011;22639;42.690;23.356;2023-02-01T00:37:04;11.97;;;7.33;;
36391;SDS011;22639;42.690;23.356;2023-02-01T00:39:29;6.97;;;5.37;;
36391;SDS011;22639;42.690;23.356;2023-02-01T00:41:54;8.53;;;6.27;;
36391;SDS011;22639;42.690;23.356;2023-02-01T00:44:20;6.30;;;5.30;;
36391;SDS011;22639;42.690;23.356;2023-02-01T00:46:45;9.20;;;6.13;;
36391;SDS011;22639;42.690;23.356;2023-02-01T00:49:10;8.23;;;6.47;;
36391;SDS011;22639;42.690;23.356;2023-02-01T00:51:35;8.43;;;7.33;;
36391;SDS011;22639;42.690;23.356;2023-02-01T00:54:01;10.20;;;6.20;;
36391;SDS011;22639;42.690;23.356;2023-02-01T00:56:26;8.67;;;6.17;;
36391;SDS011;22639;42.690;23.356;2023-02-01T00:58:54;7.80;;;5.10;;
36391;SDS011;22639;42.690;23.356;2023-02-01T01:01:21;9.07;;;5.83;;
36391;SDS011;22639;42.690;23.356;2023-02-01T01:03:48;6.40;;;5.50;;
36391;SDS011;22639;42.690;23.356;2023-02-01T01:06:15;6.27;;;4.40;;
36391;SDS011;22639;42.690;23.356;2023-02-01T01:08:41;6.40;;;5.73;;
36391;SDS011;22639;42.690;23.356;2023-02-01T01:11:14;4.80;;;4.13;;
36391;SDS011;22639;42.690;23.356;2023-02-01T01:13:40;7.43;;;4.87;;
36391;SDS011;22639;42.690;23.356;2023-02-01T01:16:06;4.83;;;4.03;;
36391;SDS011;22639;42.690;23.356;2023-02-01T01:18:32;8.97;;;4.27;;
36391;SDS011;22639;42.690;23.356;2023-02-01T01:20:58;5.27;;;4.50;;
36391;SDS011;22639;42.690;23.356;2023-02-01T01:23:23;4.57;;;4.03;;
36391;SDS011;22639;42.690;23.356;2023-02-01T01:25:48;7.20;;;5.23;;
36391;SDS011;22639;42.690;23.356;2023-02-01T01:28:14;6.63;;;5.37;;
36391;SDS011;22639;42.690;23.356;2023-02-01T01:30:39;4.67;;;4.10;;
36391;SDS011;22639;42.690;23.356;2023-02-01T01:33:04;6.17;;;4.90;;
36391;SDS011;22639;42.690;23.356;2023-02-01T01:35:30;4.27;;;3.40;;
36391;SDS011;22639;42.690;23.356;2023-02-01T01:37:55;4.00;;;3.40;;
36391;SDS011;22639;42.690;23.356;2023-02-01T01:40:21;4.67;;;2.80;;
36391;SDS011;22639;42.690;23.356;2023-02-01T01:42:46;5.07;;;4.17;;
36391;SDS011;22639;42.690;23.356;2023-02-01T01:45:33;4.70;;;3.93;;
36391;SDS011;22639;42.690;23.356;2023-02-01T01:47:58;5.53;;;4.43;;
36391;SDS011;22639;42.690;23.356;2023-02-01T01:50:32;5.87;;;4.00;;
36391;SDS011;22639;42.690;23.356;2023-02-01T01:52:58;6.10;;;3.30;;
36391;SDS011;22639;42.690;23.356;2023-02-01T01:55:26;6.53;;;4.67;;
36391;SDS011;22639;42.690;23.356;2023-02-01T01:57:57;4.57;;;4.03;;
36391;SDS011;22639;42.690;23.356;2023-02-01T02:00:23;5.50;;;3.23;;
36391;SDS011;22639;42.690;23.356;2023-02-01T02:02:51;4.57;;;3.10;;
36391;SDS011;22639;42.690;23.356;2023-02-01T02:05:18;4.40;;;3.77;;
36391;SDS011;22639;42.690;23.356;2023-02-01T02:07:45;5.00;;;3.30;;
36391;SDS011;22639;42.690;23.356;2023-02-01T02:10:12;5.30;;;3.77;;
36391;SDS011;22639;42.690;23.356;2023-02-01T02:12:38;4.23;;;2.80;;
36391;SDS011;22639;42.690;23.356;2023-02-01T02:15:05;6.00;;;3.30;;
36391;SDS011;22639;42.690;23.356;2023-02-01T02:30:28;5.87;;;3.80;;
36391;SDS011;22639;42.690;23.356;2023-02-01T02:33:17;7.37;;;3.83;;
36391;SDS011;22639;42.690;23.356;2023-02-01T02:36:27;8.13;;;4.00;;
36391;SDS011;22639;42.690;23.356;2023-02-01T02:38:33;5.30;;;3.77;;
36391;SDS011;22639;42.690;23.356;2023-02-01T02:41:23;4.50;;;3.77;;
36391;SDS011;22639;42.690;23.356;2023-02-01T02:44:10;5.07;;;3.97;;
36391;SDS011;22639;42.690;23.356;2023-02-01T02:46:55;3.17;;;2.87;;
36391;SDS011;22639;42.690;23.356;2023-02-01T02:50:05;4.70;;;4.17;;
36391;SDS011;22639;42.690;23.356;2023-02-01T02:52:52;4.83;;;2.93;;
36391;SDS011;22639;42.690;23.356;2023-02-01T02:55:37;4.40;;;3.13;;
36391;SDS011;22639;42.690;23.356;2023-02-01T02:58:04;7.20;;;4.10;;
36391;SDS011;22639;42.690;23.356;2023-02-01T03:00:48;5.67;;;3.90;;
36391;SDS011;22639;42.690;23.356;2023-02-01T03:03:35;5.43;;;3.30;;
36391;SDS011;22639;42.690;23.356;2023-02-01T03:06:19;5.17;;;3.67;;
36391;SDS011;22639;42.690;23.356;2023-02-01T03:08:44;6.63;;;3.80;;
36391;SDS011;22639;42.690;23.356;2023-02-01T03:11:13;8.23;;;3.73;;
36391;SDS011;22639;42.690;23.356;2023-02-01T03:20:57;5.10;;;3.73;;
36391;SDS011;22639;42.690;23.356;2023-02-01T03:23:24;6.20;;;3.13;;
36391;SDS011;22639;42.690;23.356;2023-02-01T03:25:51;6.20;;;4.33;;
36391;SDS011;22639;42.690;23.356;2023-02-01T03:28:17;4.73;;;3.47;;
36391;SDS011;22639;42.690;23.356;2023-02-01T03:30:46;7.03;;;3.80;;
36391;SDS011;22639;42.690;23.356;2023-02-01T03:33:17;4.37;;;3.60;;
36391;SDS011;22639;42.690;23.356;2023-02-01T03:41:03;6.20;;;4.07;;
36391;SDS011;22639;42.690;23.356;2023-02-01T03:43:33;4.03;;;3.57;;
36391;SDS011;22639;42.690;23.356;2023-02-01T03:46:02;5.37;;;3.80;;
36391;SDS011;22639;42.690;23.356;2023-02-01T03:48:30;4.33;;;3.23;;
36391;SDS011;22639;42.690;23.356;2023-02-01T03:50:57;4.47;;;3.50;;
36391;SDS011;22639;42.690;23.356;2023-02-01T03:53:24;3.80;;;3.23;;
36391;SDS011;22639;42.690;23.356;2023-02-01T03:55:50;2.80;;;2.60;;
36391;SDS011;22639;42.690;23.356;2023-02-01T03:58:17;7.83;;;3.43;;
36391;SDS011;22639;42.690;23.356;2023-02-01T04:00:50;5.07;;;3.43;;
36391;SDS011;22639;42.690;23.356;2023-02-01T04:03:16;4.80;;;3.80;;
36391;SDS011;22639;42.690;23.356;2023-02-01T04:05:41;3.60;;;3.27;;
36391;SDS011;22639;42.690;23.356;2023-02-01T04:08:06;3.20;;;2.67;;
36391;SDS011;22639;42.690;23.356;2023-02-01T04:10:32;4.07;;;3.27;;
36391;SDS011;22639;42.690;23.356;2023-02-01T04:12:57;5.43;;;3.47;;
36391;SDS011;22639;42.690;23.356;2023-02-01T04:15:22;5.57;;;4.43;;
36391;SDS011;22639;42.690;23.356;2023-02-01T04:17:47;4.80;;;3.20;;
36391;SDS011;22639;42.690;23.356;2023-02-01T04:20:13;6.50;;;3.47;;
36391;SDS011;22639;42.690;23.356;2023-02-01T04:22:38;4.57;;;4.17;;
36391;SDS011;22639;42.690;23.356;2023-02-01T04:25:03;6.03;;;3.90;;
36391;SDS011;22639;42.690;23.356;2023-02-01T04:27:30;3.77;;;3.30;;
36391;SDS011;22639;42.690;23.356;2023-02-01T04:29:55;5.83;;;2.93;;
36391;SDS011;22639;42.690;23.356;2023-02-01T04:32:21;6.00;;;3.93;;
36391;SDS011;22639;42.690;23.356;2023-02-01T04:34:46;4.30;;;3.90;;
36391;SDS011;22639;42.690;23.356;2023-02-01T04:37:12;6.03;;;3.97;;
36391;SDS011;22639;42.690;23.356;2023-02-01T04:39:37;4.77;;;3.47;;
36391;SDS011;22639;42.690;23.356;2023-02-01T04:42:02;4.80;;;3.77;;
36391;SDS011;22639;42.690;23.356;2023-02-01T04:44:27;5.47;;;4.20;;
36391;SDS011;22639;42.690;23.356;2023-02-01T04:46:53;4.70;;;3.20;;
36391;SDS011;22639;42.690;23.356;2023-02-01T04:49:18;4.70;;;3.13;;
36391;SDS011;22639;42.690;23.356;2023-02-01T04:51:44;5.63;;;4.53;;
36391;SDS011;22639;42.690;23.356;2023-02-01T04:54:09;7.37;;;4.57;;
36391;SDS011;22639;42.690;23.356;2023-02-01T04:56:36;4.93;;;3.57;;
36391;SDS011;22639;42.690;23.356;2023-02-01T04:59:02;8.27;;;4.47;;
36391;SDS011;22639;42.690;23.356;2023-02-01T05:01:28;8.13;;;4.67;;
36391;SDS011;22639;42.690;23.356;2023-02-01T05:06:43;9.60;;;5.33;;
36391;SDS011;22639;42.690;23.356;2023-02-01T05:09:08;6.73;;;4.30;;
36391;SDS011;22639;42.690;23.356;2023-02-01T05:11:34;5.47;;;3.87;;
36391;SDS011;22639;42.690;23.356;2023-02-01T05:14:17;6.33;;;5.03;;
36391;SDS011;22639;42.690;23.356;2023-02-01T05:16:46;6.13;;;4.93;;
36391;SDS011;22639;42.690;23.356;2023-02-01T05:19:11;7.07;;;5.10;;
36391;SDS011;22639;42.690;23.356;2023-02-01T05:21:37;8.80;;;5.10;;
36391;SDS011;22639;42.690;23.356;2023-02-01T05:24:03;10.17;;;4.97;;
36391;SDS011;22639;42.690;23.356;2023-02-01T05:26:34;5.87;;;5.07;;
36391;SDS011;22639;42.690;23.356;2023-02-01T05:28:59;6.53;;;4.60;;
36391;SDS011;22639;42.690;23.356;2023-02-01T05:31:24;6.30;;;5.30;;
36391;SDS011;22639;42.690;23.356;2023-02-01T05:33:50;11.97;;;4.93;;
36391;SDS011;22639;42.690;23.356;2023-02-01T05:36:15;7.50;;;4.40;;
36391;SDS011;22639;42.690;23.356;2023-02-01T05:38:40;6.80;;;3.90;;
36391;SDS011;22639;42.690;23.356;2023-02-01T05:41:06;7.50;;;4.93;;
36391;SDS011;22639;42.690;23.356;2023-02-01T05:43:31;6.03;;;5.37;;
36391;SDS011;22639;42.690;23.356;2023-02-01T05:45:56;7.13;;;4.90;;
36391;SDS011;22639;42.690;23.356;2023-02-01T05:48:22;6.77;;;4.90;;
36391;SDS011;22639;42.690;23.356;2023-02-01T05:50:47;8.20;;;5.77;;
36391;SDS011;22639;42.690;23.356;2023-02-01T05:53:12;9.50;;;6.00;;
36391;SDS011;22639;42.690;23.356;2023-02-01T05:55:38;6.50;;;4.43;;
36391;SDS011;22639;42.690;23.356;2023-02-01T05:58:04;6.87;;;5.83;;
36391;SDS011;22639;42.690;23.356;2023-02-01T06:00:29;6.37;;;5.47;;
36391;SDS011;22639;42.690;23.356;2023-02-01T06:02:55;6.53;;;5.50;;
36391;SDS011;22639;42.690;23.356;2023-02-01T06:05:20;7.40;;;4.63;;
36391;SDS011;22639;42.690;23.356;2023-02-01T06:07:45;4.30;;;3.43;;
36391;SDS011;22639;42.690;23.356;2023-02-01T06:10:11;10.23;;;5.17;;
36391;SDS011;22639;42.690;23.356;2023-02-01T06:12:37;5.63;;;4.77;;
36391;SDS011;22639;42.690;23.356;2023-02-01T06:15:02;8.93;;;5.07;;
36391;SDS011;22639;42.690;23.356;2023-02-01T06:17:27;7.53;;;5.40;;
36391;SDS011;22639;42.690;23.356;2023-02-01T06:19:53;9.27;;;6.40;;
36391;SDS011;22639;42.690;23.356;2023-02-01T06:22:18;6.47;;;3.20;;
36391;SDS011;22639;42.690;23.356;2023-02-01T06:24:43;6.43;;;3.43;;
36391;SDS011;22639;42.690;23.356;2023-02-01T06:27:08;4.37;;;3.97;;
36391;SDS011;22639;42.690;23.356;2023-02-01T06:29:34;7.23;;;4.97;;
36391;SDS011;22639;42.690;23.356;2023-02-01T06:31:59;7.70;;;4.40;;
36391;SDS011;22639;42.690;23.356;2023-02-01T06:34:25;7.37;;;4.70;;
36391;SDS011;22639;42.690;23.356;2023-02-01T06:36:50;7.53;;;4.20;;
36391;SDS011;22639;42.690;23.356;2023-02-01T06:39:15;5.37;;;3.57;;
36391;SDS011;22639;42.690;23.356;2023-02-01T06:41:41;8.87;;;5.00;;
36391;SDS011;22639;42.690;23.356;2023-02-01T06:44:07;5.70;;;3.80;;
36391;SDS011;22639;42.690;23.356;2023-02-01T06:46:33;5.43;;;4.07;;
36391;SDS011;22639;42.690;23.356;2023-02-01T06:48:58;6.07;;;4.03;;
36391;SDS011;22639;42.690;23.356;2023-02-01T06:51:25;9.20;;;4.63;;
36391;SDS011;22639;42.690;23.356;2023-02-01T06:53:51;5.97;;;4.67;;
36391;SDS011;22639;42.690;23.356;2023-02-01T06:56:16;5.93;;;4.33;;
36391;SDS011;22639;42.690;23.356;2023-02-01T06:58:42;5.30;;;3.97;;
36391;SDS011;22639;42.690;23.356;2023-02-01T07:01:08;5.43;;;4.27;;
36391;SDS011;22639;42.690;23.356;2023-02-01T07:03:33;5.60;;;4.63;;
36391;SDS011;22639;42.690;23.356;2023-02-01T07:05:59;7.23;;;4.60;;
36391;SDS011;22639;42.690;23.356;2023-02-01T07:08:24;11.33;;;4.63;;
36391;SDS011;22639;42.690;23.356;2023-02-01T07:10:51;8.07;;;3.43;;
36391;SDS011;22639;42.690;23.356;2023-02-01T07:13:17;6.67;;;3.80;;
36391;SDS011;22639;42.690;23.356;2023-02-01T07:15:42;6.30;;;3.80;;
36391;SDS011;22639;42.690;23.356;2023-02-01T07:18:07;5.27;;;3.87;;
36391;SDS011;22639;42.690;23.356;2023-02-01T07:20:32;7.83;;;4.50;;
36391;SDS011;22639;42.690;23.356;2023-02-01T07:22:57;5.83;;;3.50;;
36391;SDS011;22639;42.690;23.356;2023-02-01T07:25:23;4.53;;;2.83;;
36391;SDS011;22639;42.690;23.356;2023-02-01T07:27:48;5.60;;;3.67;;
36391;SDS011;22639;42.690;23.356;2023-02-01T07:30:13;5.43;;;4.13;;
36391;SDS011;22639;42.690;23.356;2023-02-01T07:32:39;9.37;;;4.60;;
36391;SDS011;22639;42.690;23.356;2023-02-01T07:35:04;9.47;;;3.77;;
36391;SDS011;22639;42.690;23.356;2023-02-01T07:37:29;5.13;;;3.37;;
36391;SDS011;22639;42.690;23.356;2023-02-01T07:39:55;5.23;;;3.13;;
36391;SDS011;22639;42.690;23.356;2023-02-01T07:42:21;4.20;;;3.03;;
36391;SDS011;22639;42.690;23.356;2023-02-01T07:44:46;5.63;;;3.87;;
36391;SDS011;22639;42.690;23.356;2023-02-01T07:47:11;8.23;;;3.87;;
36391;SDS011;22639;42.690;23.356;2023-02-01T07:49:36;7.80;;;3.90;;
36391;SDS011;22639;42.690;23.356;2023-02-01T07:52:02;6.07;;;4.00;;
36391;SDS011;22639;42.690;23.356;2023-02-01T07:54:27;3.90;;;2.93;;
36391;SDS011;22639;42.690;23.356;2023-02-01T07:56:52;7.37;;;3.97;;
36391;SDS011;22639;42.690;23.356;2023-02-01T07:59:18;6.17;;;3.63;;
36391;SDS011;22639;42.690;23.356;2023-02-01T08:01:43;5.10;;;3.40;;
36391;SDS011;22639;42.690;23.356;2023-02-01T08:04:09;7.93;;;3.63;;
36391;SDS011;22639;42.690;23.356;2023-02-01T08:06:35;7.77;;;3.60;;
36391;SDS011;22639;42.690;23.356;2023-02-01T08:09:01;3.90;;;2.93;;
36391;SDS011;22639;42.690;23.356;2023-02-01T08:11:26;4.20;;;2.70;;
36391;SDS011;22639;42.690;23.356;2023-02-01T08:13:52;3.03;;;2.50;;
36391;SDS011;22639;42.690;23.356;2023-02-01T08:16:18;6.17;;;3.80;;
36391;SDS011;22639;42.690;23.356;2023-02-01T08:18:44;7.13;;;4.10;;
36391;SDS011;22639;42.690;23.356;2023-02-01T08:21:10;7.33;;;3.93;;
36391;SDS011;22639;42.690;23.356;2023-02-01T08:23:36;6.60;;;3.53;;
36391;SDS011;22639;42.690;23.356;2023-02-01T08:28:33;7.60;;;3.67;;
36391;SDS011;22639;42.690;23.356;2023-02-01T08:30:58;7.47;;;3.73;;
36391;SDS011;22639;42.690;23.356;2023-02-01T08:33:24;5.83;;;3.73;;
36391;SDS011;22639;42.690;23.356;2023-02-01T08:35:49;4.70;;;3.30;;
36391;SDS011;22639;42.690;23.356;2023-02-01T08:38:15;4.80;;;4.10;;
36391;SDS011;22639;42.690;23.356;2023-02-01T08:40:40;5.03;;;3.60;;
36391;SDS011;22639;42.690;23.356;2023-02-01T08:43:06;6.93;;;4.07;;
36391;SDS011;22639;42.690;23.356;2023-02-01T08:45:32;5.30;;;3.70;;
36391;SDS011;22639;42.690;23.356;2023-02-01T08:47:57;5.67;;;3.17;;
36391;SDS011;22639;42.690;23.356;2023-02-01T08:50:23;4.90;;;3.00;;
36391;SDS011;22639;42.690;23.356;2023-02-01T08:52:48;2.97;;;2.30;;
36391;SDS011;22639;42.690;23.356;2023-02-01T08:55:14;7.07;;;3.57;;
36391;SDS011;22639;42.690;23.356;2023-02-01T08:57:39;7.23;;;3.47;;
36391;SDS011;22639;42.690;23.356;2023-02-01T09:00:06;3.07;;;2.53;;
36391;SDS011;22639;42.690;23.356;2023-02-01T09:02:31;3.87;;;2.57;;
36391;SDS011;22639;42.690;23.356;2023-02-01T09:04:57;6.97;;;3.13;;
36391;SDS011;22639;42.690;23.356;2023-02-01T09:07:23;4.80;;;3.50;;
36391;SDS011;22639;42.690;23.356;2023-02-01T09:09:48;5.80;;;3.50;;
36391;SDS011;22639;42.690;23.356;2023-02-01T09:12:14;5.93;;;3.10;;
36391;SDS011;22639;42.690;23.356;2023-02-01T09:14:39;10.00;;;6.10;;
36391;SDS011;22639;42.690;23.356;2023-02-01T09:17:04;6.90;;;4.07;;
36391;SDS011;22639;42.690;23.356;2023-02-01T09:19:32;5.00;;;3.97;;
36391;SDS011;22639;42.690;23.356;2023-02-01T09:21:57;3.00;;;2.47;;
36391;SDS011;22639;42.690;23.356;2023-02-01T09:24:22;3.70;;;2.27;;
36391;SDS011;22639;42.690;23.356;2023-02-01T09:26:48;3.10;;;2.00;;
36391;SDS011;22639;42.690;23.356;2023-02-01T09:29:13;2.43;;;2.03;;
36391;SDS011;22639;42.690;23.356;2023-02-01T09:31:39;7.37;;;2.53;;
36391;SDS011;22639;42.690;23.356;2023-02-01T09:34:04;3.53;;;2.70;;
36391;SDS011;22639;42.690;23.356;2023-02-01T09:36:30;4.07;;;2.97;;
36391;SDS011;22639;42.690;23.356;2023-02-01T09:38:55;5.10;;;3.17;;
36391;SDS011;22639;42.690;23.356;2023-02-01T09:48:48;7.43;;;2.60;;
36391;SDS011;22639;42.690;23.356;2023-02-01T09:51:19;4.97;;;2.40;;
36391;SDS011;22639;42.690;23.356;2023-02-01T09:53:47;4.87;;;2.57;;
36391;SDS011;22639;42.690;23.356;2023-02-01T09:56:14;3.43;;;2.27;;
36391;SDS011;22639;42.690;23.356;2023-02-01T09:58:55;2.87;;;2.10;;
36391;SDS011;22639;42.690;23.356;2023-02-01T10:01:25;2.60;;;1.70;;
36391;SDS011;22639;42.690;23.356;2023-02-01T10:03:57;6.87;;;1.97;;
36391;SDS011;22639;42.690;23.356;2023-02-01T10:19:33;8.60;;;3.73;;
36391;SDS011;22639;42.690;23.356;2023-02-01T10:22:01;2.73;;;2.13;;
36391;SDS011;22639;42.690;23.356;2023-02-01T10:29:24;4.40;;;2.43;;
36391;SDS011;22639;42.690;23.356;2023-02-01T10:31:52;3.23;;;2.40;;
36391;SDS011;22639;42.690;23.356;2023-02-01T10:34:21;6.07;;;3.10;;
36391;SDS011;22639;42.690;23.356;2023-02-01T10:36:52;3.77;;;2.90;;
36391;SDS011;22639;42.690;23.356;2023-02-01T10:39:18;5.10;;;3.63;;
36391;SDS011;22639;42.690;23.356;2023-02-01T10:41:44;4.37;;;2.93;;
36391;SDS011;22639;42.690;23.356;2023-02-01T10:44:23;5.87;;;3.27;;
36391;SDS011;22639;42.690;23.356;2023-02-01T10:46:50;2.70;;;1.83;;
36391;SDS011;22639;42.690;23.356;2023-02-01T10:49:17;3.23;;;2.23;;
36391;SDS011;22639;42.690;23.356;2023-02-01T10:51:45;7.07;;;2.90;;
36391;SDS011;22639;42.690;23.356;2023-02-01T10:56:40;4.27;;;2.97;;
36391;SDS011;22639;42.690;23.356;2023-02-01T10:59:14;5.33;;;2.40;;
36391;SDS011;22639;42.690;23.356;2023-02-01T11:01:40;3.80;;;2.27;;
36391;SDS011;22639;42.690;23.356;2023-02-01T11:04:12;7.10;;;2.80;;
36391;SDS011;22639;42.690;23.356;2023-02-01T11:06:39;5.87;;;2.40;;
36391;SDS011;22639;42.690;23.356;2023-02-01T11:11:54;4.37;;;2.13;;
36391;SDS011;22639;42.690;23.356;2023-02-01T11:16:47;2.73;;;2.53;;
36391;SDS011;22639;42.690;23.356;2023-02-01T11:19:14;3.93;;;2.67;;
36391;SDS011;22639;42.690;23.356;2023-02-01T11:21:39;3.87;;;2.13;;
36391;SDS011;22639;42.690;23.356;2023-02-01T11:24:06;2.43;;;1.43;;
36391;SDS011;22639;42.690;23.356;2023-02-01T11:26:34;3.67;;;1.80;;
36391;SDS011;22639;42.690;23.356;2023-02-01T11:29:11;2.47;;;2.17;;
36391;SDS011;22639;42.690;23.356;2023-02-01T11:31:38;2.50;;;1.97;;
36391;SDS011;22639;42.690;23.356;2023-02-01T11:34:06;4.00;;;2.10;;
36391;SDS011;22639;42.690;23.356;2023-02-01T11:36:33;2.93;;;2.10;;
36391;SDS011;22639;42.690;23.356;2023-02-01T11:41:32;5.60;;;2.57;;
36391;SDS011;22639;42.690;23.356;2023-02-01T11:44:01;3.80;;;2.30;;
36391;SDS011;22639;42.690;23.356;2023-02-01T11:46:31;4.67;;;3.83;;
36391;SDS011;22639;42.690;23.356;2023-02-01T11:48:57;3.10;;;1.50;;
36391;SDS011;22639;42.690;23.356;2023-02-01T11:54:55;3.13;;;2.00;;
36391;SDS011;22639;42.690;23.356;2023-02-01T12:02:39;3.50;;;2.00;;
36391;SDS011;22639;42.690;23.356;2023-02-01T12:13:00;5.30;;;2.43;;
36391;SDS011;22639;42.690;23.356;2023-02-01T12:18:17;2.97;;;1.77;;
36391;SDS011;22639;42.690;23.356;2023-02-01T12:39:14;3.30;;;1.90;;
36391;SDS011;22639;42.690;23.356;2023-02-01T12:41:52;2.60;;;1.90;;
36391;SDS011;22639;42.690;23.356;2023-02-01T12:44:31;4.73;;;2.20;;
36391;SDS011;22639;42.690;23.356;2023-02-01T12:47:03;3.43;;;1.37;;
36391;SDS011;22639;42.690;23.356;2023-02-01T12:49:47;1.47;;;1.20;;
36391;SDS011;22639;42.690;23.356;2023-02-01T12:52:19;1.83;;;0.80;;
36391;SDS011;22639;42.690;23.356;2023-02-01T12:54:47;1.97;;;1.67;;
36391;SDS011;22639;42.690;23.356;2023-02-01T12:57:18;2.03;;;1.30;;
36391;SDS011;22639;42.690;23.356;2023-02-01T12:59:56;7.73;;;2.20;;
36391;SDS011;22639;42.690;23.356;2023-02-01T13:07:52;1.60;;;1.43;;
36391;SDS011;22639;42.690;23.356;2023-02-01T13:10:32;3.87;;;2.13;;
36391;SDS011;22639;42.690;23.356;2023-02-01T13:13:01;3.03;;;2.30;;
36391;SDS011;22639;42.690;23.356;2023-02-01T13:15:30;4.43;;;2.50;;
36391;SDS011;22639;42.690;23.356;2023-02-01T13:17:58;4.27;;;1.87;;
36391;SDS011;22639;42.690;23.356;2023-02-01T13:20:29;2.70;;;2.00;;
36391;SDS011;22639;42.690;23.356;2023-02-01T13:23:09;2.33;;;2.10;;
36391;SDS011;22639;42.690;23.356;2023-02-01T13:25:49;3.33;;;1.27;;
36391;SDS011;22639;42.690;23.356;2023-02-01T13:31:09;2.33;;;1.40;;
36391;SDS011;22639;42.690;23.356;2023-02-01T13:39:02;2.53;;;2.03;;
36391;SDS011;22639;42.690;23.356;2023-02-01T13:41:32;2.23;;;1.73;;
36391;SDS011;22639;42.690;23.356;2023-02-01T13:44:03;6.57;;;2.00;;
36391;SDS011;22639;42.690;23.356;2023-02-01T13:46:28;1.87;;;1.40;;
36391;SDS011;22639;42.690;23.356;2023-02-01T13:48:55;1.77;;;1.33;;
36391;SDS011;22639;42.690;23.356;2023-02-01T13:51:56;3.93;;;1.73;;
36391;SDS011;22639;42.690;23.356;2023-02-01T13:56:51;2.70;;;1.73;;
36391;SDS011;22639;42.690;23.356;2023-02-01T14:02:35;3.10;;;2.23;;
36391;SDS011;22639;42.690;23.356;2023-02-01T14:04:47;2.77;;;1.83;;
36391;SDS011;22639;42.690;23.356;2023-02-01T14:07:21;2.10;;;1.80;;
36391;SDS011;22639;42.690;23.356;2023-02-01T14:09:46;3.87;;;2.10;;
36391;SDS011;22639;42.690;23.356;2023-02-01T14:17:40;2.93;;;2.03;;
36391;SDS011;22639;42.690;23.356;2023-02-01T14:22:50;5.43;;;2.40;;
36391;SDS011;22639;42.690;23.356;2023-02-01T14:25:18;3.53;;;2.27;;
36391;SDS011;22639;42.690;23.356;2023-02-01T14:27:43;2.90;;;1.60;;
36391;SDS011;22639;42.690;23.356;2023-02-01T14:30:14;2.00;;;1.67;;
36391;SDS011;22639;42.690;23.356;2023-02-01T14:32:40;1.67;;;1.27;;
36391;SDS011;22639;42.690;23.356;2023-02-01T14:35:12;2.10;;;1.90;;
36391;SDS011;22639;42.690;23.356;2023-02-01T14:37:41;2.57;;;1.77;;
36391;SDS011;22639;42.690;23.356;2023-02-01T14:40:15;4.40;;;1.97;;
36391;SDS011;22639;42.690;23.356;2023-02-01T15:00:52;4.27;;;2.73;;
36391;SDS011;22639;42.690;23.356;2023-02-01T15:05:50;3.77;;;2.53;;
36391;SDS011;22639;42.690;23.356;2023-02-01T15:08:20;3.13;;;2.50;;
36391;SDS011;22639;42.690;23.356;2023-02-01T15:10:48;4.37;;;2.63;;
36391;SDS011;22639;42.690;23.356;2023-02-01T15:13:19;7.80;;;3.10;;
36391;SDS011;22639;42.690;23.356;2023-02-01T15:15:44;4.97;;;2.63;;
36391;SDS011;22639;42.690;23.356;2023-02-01T15:18:14;3.27;;;2.30;;
36391;SDS011;22639;42.690;23.356;2023-02-01T15:20:40;6.50;;;3.57;;
36391;SDS011;22639;42.690;23.356;2023-02-01T15:23:14;6.37;;;3.40;;
36391;SDS011;22639;42.690;23.356;2023-02-01T15:25:40;8.90;;;3.43;;
36391;SDS011;22639;42.690;23.356;2023-02-01T15:28:12;6.50;;;4.10;;
36391;SDS011;22639;42.690;23.356;2023-02-01T15:30:37;5.53;;;3.63;;
36391;SDS011;22639;42.690;23.356;2023-02-01T15:35:46;4.20;;;2.73;;
36391;SDS011;22639;42.690;23.356;2023-02-01T15:38:19;4.33;;;3.37;;
36391;SDS011;22639;42.690;23.356;2023-02-01T15:43:19;4.77;;;3.10;;
36391;SDS011;22639;42.690;23.356;2023-02-01T15:45:45;8.47;;;3.83;;
36391;SDS011;22639;42.690;23.356;2023-02-01T15:48:11;6.60;;;3.20;;
36391;SDS011;22639;42.690;23.356;2023-02-01T15:50:39;8.73;;;4.37;;
36391;SDS011;22639;42.690;23.356;2023-02-01T15:53:05;4.90;;;3.57;;
36391;SDS011;22639;42.690;23.356;2023-02-01T15:55:39;4.33;;;3.20;;
36391;SDS011;22639;42.690;23.356;2023-02-01T15:58:09;7.03;;;4.30;;
36391;SDS011;22639;42.690;23.356;2023-02-01T16:06:09;5.70;;;3.30;;
36391;SDS011;22639;42.690;23.356;2023-02-01T16:08:35;8.20;;;3.50;;
36391;SDS011;22639;42.690;23.356;2023-02-01T16:11:23;4.17;;;2.60;;
36391;SDS011;22639;42.690;23.356;2023-02-01T16:13:47;4.83;;;3.17;;
36391;SDS011;22639;42.690;23.356;2023-02-01T16:16:13;9.03;;;4.37;;
36391;SDS011;22639;42.690;23.356;2023-02-01T16:18:39;3.30;;;2.27;;
36391;SDS011;22639;42.690;23.356;2023-02-01T16:21:04;8.90;;;3.77;;
36391;SDS011;22639;42.690;23.356;2023-02-01T16:23:30;3.93;;;2.20;;
36391;SDS011;22639;42.690;23.356;2023-02-01T16:25:55;4.97;;;2.53;;
36391;SDS011;22639;42.690;23.356;2023-02-01T16:28:20;4.93;;;2.93;;
36391;SDS011;22639;42.690;23.356;2023-02-01T16:30:46;4.13;;;2.93;;
36391;SDS011;22639;42.690;23.356;2023-02-01T16:33:14;5.30;;;2.80;;
36391;SDS011;22639;42.690;23.356;2023-02-01T16:35:42;6.23;;;3.30;;
36391;SDS011;22639;42.690;23.356;2023-02-01T16:38:11;6.23;;;3.30;;
36391;SDS011;22639;42.690;23.356;2023-02-01T16:40:38;5.20;;;2.80;;
36391;SDS011;22639;42.690;23.356;2023-02-01T16:45:59;4.50;;;2.47;;
36391;SDS011;22639;42.690;23.356;2023-02-01T16:48:26;2.70;;;2.13;;
36391;SDS011;22639;42.690;23.356;2023-02-01T16:50:56;3.10;;;2.17;;
36391;SDS011;22639;42.690;23.356;2023-02-01T16:53:22;5.37;;;3.17;;
36391;SDS011;22639;42.690;23.356;2023-02-01T16:55:48;4.30;;;3.17;;
36391;SDS011;22639;42.690;23.356;2023-02-01T16:58:15;11.37;;;2.67;;
36391;SDS011;22639;42.690;23.356;2023-02-01T17:00:40;9.67;;;3.30;;
36391;SDS011;22639;42.690;23.356;2023-02-01T17:03:05;4.70;;;3.23;;
36391;SDS011;22639;42.690;23.356;2023-02-01T17:05:31;4.07;;;2.70;;
36391;SDS011;22639;42.690;23.356;2023-02-01T17:07:57;3.37;;;2.93;;
36391;SDS011;22639;42.690;23.356;2023-02-01T17:10:25;4.77;;;2.77;;
36391;SDS011;22639;42.690;23.356;2023-02-01T17:12:50;3.87;;;2.87;;
36391;SDS011;22639;42.690;23.356;2023-02-01T17:15:15;5.90;;;3.20;;
36391;SDS011;22639;42.690;23.356;2023-02-01T17:17:41;4.07;;;3.00;;
36391;SDS011;22639;42.690;23.356;2023-02-01T17:20:26;5.77;;;3.50;;
36391;SDS011;22639;42.690;23.356;2023-02-01T17:22:53;5.50;;;3.20;;